עמוד ראשי
METAR-TAF:

METAR-TAF

שדות תעופה :

נמל התעופה הבינלאומי קי וסט

קי וסט, פלורידה, ארצות הברית

קו רוחב: 24-33-13N, קו אורך: 081-45-13W, גובה: 1מטר

תצפית מזג אוויר נוכחית

הדו"ח נערך לפני 26דקות, בשעה 09:53 UTC
רוח 11קשר מכיוון דרום/דרום-מזרח
טמפרטורת 29 צלסיוס
לחות 79%
לחץ 1014 hPa
ראות: 16.1קילומטר
עננים פזורים בגובה 1800רגל

METAR: KEYW 270953Z AUTO 15011KT 10SM SCT018 29/25 A2994 RMK AO2 SLP145 T02890250

זמן: 06:19 (10:19 UTC)

תחזית

הדו"ח נערך לפני 1 שעות ו 35דקות, בשעה 08:44 UTC
תחזית בתוקף מ 27 ב 09 UTC עד 28 ב 06 UTC
רוח 8קשר מכיוון דרום/דרום-מזרח
ראות: 10קילומטר
מעט עננים בגובה 2500רגל

TAF: KEYW 270844Z 2709/2806 15008KT P6SM FEW025

תצפיות ותחזיות מזג אוויר לגבי יותר מ- 4,000 שדות תעופה ברחבי העולם. דוחות METAR ו- TAF.

התחנות הזמינות מסומנות בנקודות צהובות ואדומות על גבי המפה.

העבר את העכבר לנקודה הצבעונית על מנת לראות את שם התחנה.

לאחר מכן, לחץ כדי לראות את תוכן ואת תחזיות מזג האוויר.

כדי לשנות את המפה: לחץ על הכפתורים הירוקים עם הפלוס השחור כדי להתקרב; על הכפתור הירוק עם המקף כדי להתרחק; או בחיצים הירוקים למפות סמוכות.


METAR-TAF: